Time;durP1;ratioP1;P1;durP2;ratioP2;P2;SDS_P1;SDS_P2;PMS_P1;PMS_P2;Temp;Humidity;BMP_temperature;BMP_pressure;BME280_temperature;BME280_humidity;BME280_pressure;Samples;Min_cycle;Max_cycle;Signal;HPM_P1;HPM_P2
2023/02/26 00:00:07;;;;;;;6.90;6.70;;;6.10;19.90;;;;;;4957573;28;20441;-54
2023/02/26 00:02:33;;;;;;;8.57;8.07;;;6.10;19.90;;;;;;4955010;28;20422;-52
2023/02/26 00:04:58;;;;;;;8.27;7.77;;;6.00;20.20;;;;;;4953156;28;20487;-53
2023/02/26 00:07:26;;;;;;;7.70;7.23;;;6.00;19.80;;;;;;4953612;28;20513;-48
2023/02/26 00:09:51;;;;;;;7.87;7.47;;;6.00;20.00;;;;;;4952704;28;20190;-47
2023/02/26 00:12:17;;;;;;;7.97;7.57;;;5.90;20.10;;;;;;4953748;28;20941;-50
2023/02/26 00:14:43;;;;;;;8.37;7.87;;;5.90;20.00;;;;;;4952190;28;20183;-52
2023/02/26 00:17:15;;;;;;;7.70;7.30;;;5.80;20.10;;;;;;4953042;28;20465;-52
2023/02/26 00:19:40;;;;;;;8.80;8.30;;;5.80;20.40;;;;;;4951965;28;20453;-54
2023/02/26 00:22:06;;;;;;;9.37;8.77;;;5.70;20.90;;;;;;4952875;28;20442;-50
2023/02/26 00:24:32;;;;;;;8.67;8.07;;;5.80;20.60;;;;;;4952217;28;20179;-54
2023/02/26 00:26:59;;;;;;;9.60;9.00;;;5.90;20.50;;;;;;4952274;28;20481;-51
2023/02/26 00:29:25;;;;;;;8.43;8.03;;;5.80;19.50;;;;;;4952712;28;20225;-53
2023/02/26 00:31:51;;;;;;;8.20;7.60;;;5.80;20.10;;;;;;4952541;28;20425;-47
2023/02/26 00:34:17;;;;;;;8.33;7.93;;;5.80;19.70;;;;;;4953093;28;20437;-48
2023/02/26 00:37:06;;;;;;;7.67;7.30;;;5.80;19.90;;;;;;4951690;28;20465;-49
2023/02/26 00:39:37;;;;;;;8.23;7.73;;;5.90;19.50;;;;;;4952635;28;20429;-48
2023/02/26 00:42:03;;;;;;;7.60;7.20;;;5.80;19.60;;;;;;4952640;28;20457;-53
2023/02/26 00:44:29;;;;;;;8.30;7.80;;;5.70;19.60;;;;;;4952184;28;20441;-48
2023/02/26 00:47:06;;;;;;;7.93;7.50;;;5.70;20.00;;;;;;4952677;28;20797;-48
2023/02/26 00:50:04;;;;;;;8.27;7.73;;;5.70;19.90;;;;;;4951911;28;20421;-47
2023/02/26 00:52:38;;;;;;;8.30;7.90;;;5.70;19.70;;;;;;4952334;28;20422;-49
2023/02/26 00:55:04;;;;;;;7.83;7.40;;;5.60;20.20;;;;;;4969418;28;20473;-51
2023/02/26 00:57:30;;;;;;;8.40;7.90;;;5.60;20.10;;;;;;4952264;28;20478;-52
2023/02/26 00:59:56;;;;;;;7.40;7.10;;;5.60;20.00;;;;;;4952469;28;20421;-48
2023/02/26 01:02:21;;;;;;;8.40;8.00;;;5.60;20.10;;;;;;4952677;28;20680;-47
2023/02/26 01:04:47;;;;;;;7.60;7.30;;;5.60;20.10;;;;;;4952422;28;20191;-48
2023/02/26 01:07:14;;;;;;;7.00;6.70;;;5.60;19.90;;;;;;4953122;28;20914;-47
2023/02/26 01:09:39;;;;;;;7.43;7.13;;;5.60;20.20;;;;;;4951630;28;20848;-49
2023/02/26 01:12:08;;;;;;;8.07;7.63;;;5.60;19.70;;;;;;4951985;28;20524;-50
2023/02/26 01:14:34;;;;;;;7.80;7.50;;;5.60;19.50;;;;;;4951615;28;20183;-58
2023/02/26 01:17:18;;;;;;;7.93;7.43;;;5.50;20.20;;;;;;4951733;28;20473;-57
2023/02/26 01:20:09;;;;;;;8.20;7.70;;;5.50;20.10;;;;;;4952707;28;20449;-57
2023/02/26 01:22:43;;;;;;;7.93;7.60;;;5.40;19.80;;;;;;4952284;28;20525;-58
2023/02/26 01:25:13;;;;;;;7.40;7.10;;;5.40;19.80;;;;;;4951880;28;20413;-57
2023/02/26 01:27:39;;;;;;;7.50;7.10;;;5.50;19.80;;;;;;4951193;28;20426;-57
2023/02/26 01:30:07;;;;;;;8.20;7.80;;;5.40;19.50;;;;;;4952261;28;20489;-56
2023/02/26 01:33:09;;;;;;;7.80;7.50;;;5.40;19.80;;;;;;4951577;28;20426;-57
2023/02/26 01:35:38;;;;;;;8.40;8.00;;;5.40;20.00;;;;;;4952216;28;20436;-51
2023/02/26 01:38:16;;;;;;;8.07;7.67;;;5.40;19.80;;;;;;4955736;28;20437;-49
2023/02/26 01:41:15;;;;;;;8.30;7.90;;;5.40;19.70;;;;;;4955351;28;20425;-48
2023/02/26 01:43:41;;;;;;;9.20;8.70;;;5.30;19.50;;;;;;4955555;28;20460;-50
2023/02/26 01:46:17;;;;;;;8.20;7.90;;;5.20;19.80;;;;;;4955309;28;20418;-52
2023/02/26 01:48:45;;;;;;;8.13;7.60;;;5.30;19.90;;;;;;4955521;28;20178;-51
2023/02/26 01:51:11;;;;;;;8.23;7.73;;;5.30;19.50;;;;;;4955573;28;20518;-51
2023/02/26 01:53:37;;;;;;;8.07;7.67;;;5.30;19.40;;;;;;4955327;28;20448;-59
2023/02/26 01:56:10;;;;;;;8.00;7.70;;;5.30;19.50;;;;;;4955094;28;20640;-57
2023/02/26 01:58:36;;;;;;;8.13;7.73;;;5.30;19.60;;;;;;4954413;28;20468;-58
2023/02/26 02:01:03;;;;;;;8.47;8.07;;;5.20;19.50;;;;;;4955515;28;20425;-58
2023/02/26 02:03:33;;;;;;;8.07;7.67;;;5.20;19.50;;;;;;4955083;28;20442;-53
2023/02/26 02:06:05;;;;;;;7.97;7.67;;;5.20;19.50;;;;;;4954749;28;20457;-51
2023/02/26 02:08:34;;;;;;;8.47;7.97;;;5.20;19.70;;;;;;4955456;28;20418;-47
2023/02/26 02:11:02;;;;;;;7.90;7.50;;;5.20;19.60;;;;;;4955078;28;20516;-49
2023/02/26 02:14:05;;;;;;;7.27;6.83;;;5.30;19.50;;;;;;4955955;28;20437;-48
2023/02/26 02:16:56;;;;;;;7.80;7.50;;;5.30;19.50;;;;;;4954533;28;20457;-46
2023/02/26 02:19:59;;;;;;;7.80;7.40;;;5.40;19.20;;;;;;4954860;28;20473;-47
2023/02/26 02:22:24;;;;;;;7.63;7.23;;;5.30;19.20;;;;;;4955100;28;20781;-47
2023/02/26 02:25:18;;;;;;;7.90;7.40;;;5.20;19.50;;;;;;4954019;28;20414;-49
2023/02/26 02:28:06;;;;;;;8.33;7.87;;;5.20;19.70;;;;;;4954430;28;20193;-47
2023/02/26 02:31:07;;;;;;;8.37;7.77;;;5.20;19.70;;;;;;4954661;28;20427;-49
2023/02/26 02:33:47;;;;;;;7.90;7.40;;;5.30;19.60;;;;;;4955189;28;20785;-50
2023/02/26 02:36:40;;;;;;;8.47;7.97;;;5.30;19.20;;;;;;4954167;28;20878;-47
2023/02/26 02:39:15;;;;;;;7.47;7.07;;;5.30;19.60;;;;;;4954432;28;20941;-47
2023/02/26 02:42:22;;;;;;;7.63;7.23;;;5.40;19.40;;;;;;4954311;28;20468;-50
2023/02/26 02:45:06;;;;;;;8.50;8.03;;;5.40;19.30;;;;;;4874415;29;20591;-48
2023/02/26 02:47:35;;;;;;;8.03;7.63;;;5.40;19.00;;;;;;4965897;28;20426;-50
2023/02/26 02:50:07;;;;;;;8.27;7.77;;;5.30;18.90;;;;;;4955418;28;20434;-50
2023/02/26 02:52:41;;;;;;;7.97;7.57;;;5.30;19.00;;;;;;4954952;28;20761;-51
2023/02/26 02:55:14;;;;;;;8.93;8.17;;;5.20;19.00;;;;;;4954369;28;20766;-47
2023/02/26 02:57:53;;;;;;;8.10;7.70;;;5.20;18.90;;;;;;4954163;28;20517;-48
2023/02/26 03:00:21;;;;;;;8.13;7.77;;;5.20;19.20;;;;;;4953799;28;20422;-50
2023/02/26 03:03:08;;;;;;;7.97;7.47;;;5.20;19.00;;;;;;4953574;28;20429;-47
2023/02/26 03:05:33;;;;;;;8.13;7.63;;;5.10;18.90;;;;;;4954693;28;20473;-49
2023/02/26 03:08:09;;;;;;;8.27;7.63;;;5.10;19.10;;;;;;4954794;28;20418;-49
2023/02/26 03:10:47;;;;;;;9.67;8.90;;;5.00;19.20;;;;;;4953795;28;20187;-48
2023/02/26 03:13:18;;;;;;;9.13;8.63;;;5.00;19.40;;;;;;4954366;28;20469;-48
2023/02/26 03:15:58;;;;;;;8.57;8.07;;;5.00;19.40;;;;;;4953994;28;20422;-47
2023/02/26 03:18:31;;;;;;;8.70;8.30;;;5.00;19.30;;;;;;4953733;28;20434;-50
2023/02/26 03:21:31;;;;;;;8.30;7.80;;;5.00;19.30;;;;;;4954030;28;20457;-53
2023/02/26 03:24:10;;;;;;;8.00;7.60;;;4.90;19.40;;;;;;4904234;28;20756;-50
2023/02/26 03:26:53;;;;;;;7.87;7.47;;;4.90;19.60;;;;;;4953483;28;20496;-51
2023/02/26 03:29:42;;;;;;;8.60;8.10;;;5.00;19.50;;;;;;4954282;28;20426;-50
2023/02/26 03:32:14;;;;;;;8.13;7.67;;;5.10;19.60;;;;;;4953820;28;20422;-50
2023/02/26 03:35:00;;;;;;;7.60;7.30;;;5.00;19.40;;;;;;4953317;28;20422;-49
2023/02/26 03:37:42;;;;;;;8.73;8.23;;;5.10;19.30;;;;;;4953033;28;20470;-52
2023/02/26 03:40:23;;;;;;;7.43;7.13;;;5.00;19.20;;;;;;4953381;28;20422;-52
2023/02/26 03:43:06;;;;;;;8.20;7.70;;;5.00;19.40;;;;;;4953110;28;20825;-54
2023/02/26 03:45:34;;;;;;;8.30;7.80;;;4.80;20.00;;;;;;4952730;28;20429;-48
2023/02/26 03:48:03;;;;;;;7.43;7.13;;;4.70;20.60;;;;;;4952603;28;20432;-48
2023/02/26 03:50:33;;;;;;;9.47;8.80;;;4.80;20.00;;;;;;4952951;28;20927;-49
2023/02/26 03:53:02;;;;;;;7.83;7.33;;;4.90;19.90;;;;;;4952792;28;20433;-50
2023/02/26 03:55:48;;;;;;;8.77;8.27;;;5.00;20.00;;;;;;4953362;28;20792;-48
2023/02/26 03:58:14;;;;;;;8.60;8.00;;;5.10;19.70;;;;;;4952428;28;20437;-51
2023/02/26 04:00:43;;;;;;;7.60;7.10;;;5.10;19.40;;;;;;4951873;28;20429;-49
2023/02/26 04:03:28;;;;;;;8.40;7.90;;;5.10;19.20;;;;;;4952892;28;20418;-51
2023/02/26 04:05:55;;;;;;;7.80;7.40;;;5.00;20.30;;;;;;4952898;28;21116;-49
2023/02/26 04:08:22;;;;;;;7.57;7.20;;;4.90;19.80;;;;;;4953227;28;21017;-49
2023/02/26 04:11:10;;;;;;;8.47;8.07;;;4.80;21.20;;;;;;4952871;28;20576;-57
2023/02/26 04:13:36;;;;;;;8.20;7.60;;;4.90;20.10;;;;;;4969782;28;20417;-57
2023/02/26 04:16:01;;;;;;;7.67;7.37;;;5.00;19.80;;;;;;4953215;28;20466;-58
2023/02/26 04:18:27;;;;;;;8.03;7.53;;;4.90;19.70;;;;;;4953142;28;20422;-56
2023/02/26 04:20:53;;;;;;;8.10;7.60;;;4.90;20.00;;;;;;4953222;28;20538;-53
2023/02/26 04:23:18;;;;;;;7.97;7.67;;;4.90;20.40;;;;;;4952747;28;20177;-58
2023/02/26 04:25:45;;;;;;;7.67;7.37;;;4.90;20.00;;;;;;4952944;28;20178;-57
2023/02/26 04:28:10;;;;;;;7.80;7.50;;;4.90;20.20;;;;;;4952433;28;20218;-57
2023/02/26 04:30:36;;;;;;;7.63;7.33;;;4.90;20.10;;;;;;4952207;28;20465;-58
2023/02/26 04:33:02;;;;;;;8.40;8.00;;;4.90;20.10;;;;;;4952997;28;20274;-58
2023/02/26 04:35:28;;;;;;;7.73;7.23;;;4.80;20.70;;;;;;4952801;28;20179;-58
2023/02/26 04:37:53;;;;;;;7.53;7.13;;;4.90;20.20;;;;;;4952655;28;20461;-51
2023/02/26 04:40:19;;;;;;;8.50;7.90;;;4.90;19.50;;;;;;4952441;28;20480;-47
2023/02/26 04:42:44;;;;;;;8.03;7.53;;;4.90;19.70;;;;;;4952329;28;20182;-48
2023/02/26 04:45:10;;;;;;;7.20;6.87;;;4.90;19.70;;;;;;4952826;28;20194;-49
2023/02/26 04:47:36;;;;;;;8.53;8.13;;;4.90;19.70;;;;;;4952791;28;20181;-50
2023/02/26 04:50:02;;;;;;;7.83;7.50;;;4.90;19.70;;;;;;4953195;28;20183;-48
2023/02/26 04:52:28;;;;;;;7.77;7.40;;;4.90;19.80;;;;;;4953359;28;20182;-46
2023/02/26 04:54:53;;;;;;;7.23;6.83;;;4.90;19.70;;;;;;4953544;28;20508;-49
2023/02/26 04:57:19;;;;;;;8.10;7.60;;;4.90;20.00;;;;;;4970297;28;20213;-53
2023/02/26 04:59:44;;;;;;;7.83;7.53;;;4.90;19.70;;;;;;4953169;28;20297;-52
2023/02/26 05:02:10;;;;;;;7.97;7.47;;;4.90;19.50;;;;;;4953976;28;20188;-51
2023/02/26 05:04:36;;;;;;;8.63;8.13;;;4.90;19.70;;;;;;4954579;28;20249;-50
2023/02/26 05:07:01;;;;;;;8.17;7.70;;;4.80;19.80;;;;;;4954373;28;20202;-49
2023/02/26 05:09:27;;;;;;;7.90;7.60;;;4.70;20.00;;;;;;4954078;28;20210;-49
2023/02/26 05:11:52;;;;;;;8.10;7.70;;;4.70;19.90;;;;;;4956339;28;20186;-50
2023/02/26 05:14:18;;;;;;;8.07;7.67;;;4.70;20.20;;;;;;4957265;28;20205;-50
2023/02/26 05:16:44;;;;;;;7.80;7.50;;;4.60;20.50;;;;;;4959015;28;20294;-49
2023/02/26 05:19:09;;;;;;;8.33;7.60;;;4.70;20.00;;;;;;4957995;28;20175;-48
2023/02/26 05:21:35;;;;;;;8.20;7.80;;;4.70;20.00;;;;;;4958128;28;20574;-46
2023/02/26 05:24:01;;;;;;;8.10;7.70;;;4.70;20.30;;;;;;4958219;28;20174;-49
2023/02/26 05:26:27;;;;;;;7.30;7.00;;;4.80;19.90;;;;;;4958407;28;20421;-48
2023/02/26 05:28:53;;;;;;;8.27;7.77;;;4.70;20.10;;;;;;4957912;28;20186;-49
2023/02/26 05:31:18;;;;;;;7.47;7.10;;;4.80;19.80;;;;;;4958038;28;20186;-47
2023/02/26 05:33:44;;;;;;;8.10;7.70;;;4.70;20.00;;;;;;4958771;28;20185;-48
2023/02/26 05:36:11;;;;;;;8.10;7.70;;;4.70;19.90;;;;;;4957839;28;20198;-50
2023/02/26 05:38:37;;;;;;;8.90;8.43;;;4.70;20.00;;;;;;4958624;28;20181;-50
2023/02/26 05:41:02;;;;;;;8.67;8.17;;;4.70;20.10;;;;;;4958399;28;20509;-50
2023/02/26 05:43:28;;;;;;;8.57;8.17;;;4.70;20.10;;;;;;4958688;28;20479;-48
2023/02/26 05:45:54;;;;;;;8.13;7.63;;;4.60;20.10;;;;;;4958593;28;20188;-53
2023/02/26 05:48:20;;;;;;;7.80;7.40;;;4.70;20.10;;;;;;4958821;28;20269;-51
2023/02/26 05:50:48;;;;;;;7.60;7.10;;;4.70;20.10;;;;;;4958341;28;20426;-53
2023/02/26 05:53:14;;;;;;;7.90;7.50;;;4.70;20.10;;;;;;4957446;28;20452;-50
2023/02/26 05:55:40;;;;;;;8.53;8.03;;;4.70;20.00;;;;;;4958147;28;20850;-48
2023/02/26 05:58:05;;;;;;;7.70;7.40;;;4.70;20.40;;;;;;4958368;28;20274;-54
2023/02/26 06:00:31;;;;;;;8.23;7.73;;;4.70;20.20;;;;;;4958495;28;20949;-51
2023/02/26 06:02:57;;;;;;;7.73;7.33;;;4.70;20.10;;;;;;4958769;28;20207;-49
2023/02/26 06:05:22;;;;;;;8.37;7.90;;;4.70;20.20;;;;;;4958467;28;20539;-51
2023/02/26 06:07:48;;;;;;;9.13;8.63;;;4.70;20.60;;;;;;4958574;28;20178;-52
2023/02/26 06:10:14;;;;;;;8.40;7.80;;;4.70;20.60;;;;;;4958515;28;20210;-51
2023/02/26 06:12:40;;;;;;;9.30;7.47;;;4.70;20.00;;;;;;4958234;28;20701;-53
2023/02/26 06:15:07;;;;;;;8.17;7.67;;;4.50;20.30;;;;;;4958483;28;20206;-49
2023/02/26 06:17:34;;;;;;;8.00;7.60;;;4.40;20.40;;;;;;4958068;28;20460;-51
2023/02/26 06:20:00;;;;;;;10.20;9.60;;;4.30;20.70;;;;;;4958591;28;20406;-50
2023/02/26 06:22:26;;;;;;;9.67;9.20;;;4.30;21.10;;;;;;4957367;28;20462;-52
2023/02/26 06:24:53;;;;;;;8.60;8.30;;;4.30;21.40;;;;;;4958673;28;20422;-53
2023/02/26 06:27:19;;;;;;;8.40;7.80;;;4.40;21.10;;;;;;4958349;28;20178;-52
2023/02/26 06:29:45;;;;;;;8.67;8.27;;;4.50;20.50;;;;;;4958687;28;20469;-47
2023/02/26 06:32:10;;;;;;;9.13;8.37;;;4.50;20.50;;;;;;4958136;28;20608;-51
2023/02/26 06:34:36;;;;;;;8.03;7.63;;;4.50;21.30;;;;;;4958205;28;20181;-50
2023/02/26 06:37:02;;;;;;;9.77;9.20;;;4.50;21.10;;;;;;4957897;28;20272;-52
2023/02/26 06:39:27;;;;;;;8.70;8.20;;;4.40;23.70;;;;;;4951853;28;20253;-52
2023/02/26 06:41:53;;;;;;;7.60;7.20;;;4.40;21.20;;;;;;4965447;28;20524;-50
2023/02/26 06:44:18;;;;;;;9.10;8.60;;;4.30;21.20;;;;;;4945983;29;20213;-52
2023/02/26 06:46:44;;;;;;;8.00;7.67;;;4.20;21.30;;;;;;4938184;29;20587;-51
2023/02/26 06:49:10;;;;;;;9.40;8.90;;;4.10;22.00;;;;;;4948073;28;20687;-53
2023/02/26 06:51:35;;;;;;;9.10;8.70;;;4.20;21.60;;;;;;4962595;28;20636;-59
2023/02/26 06:54:01;;;;;;;9.33;8.83;;;4.30;22.20;;;;;;4975655;28;20186;-60
2023/02/26 06:56:27;;;;;;;9.23;8.73;;;4.40;23.50;;;;;;4977531;28;20646;-60
2023/02/26 06:58:52;;;;;;;9.10;8.70;;;4.40;23.40;;;;;;4977387;28;20190;-59
2023/02/26 07:01:18;;;;;;;11.10;10.40;;;4.40;21.70;;;;;;4976487;28;20182;-59
2023/02/26 07:03:44;;;;;;;8.80;8.20;;;4.40;24.40;;;;;;4977005;28;20295;-60
2023/02/26 07:06:11;;;;;;;9.90;9.40;;;4.10;23.50;;;;;;4977379;28;20418;-60
2023/02/26 07:08:37;;;;;;;8.40;7.80;;;4.20;25.80;;;;;;4974719;28;20179;-55
2023/02/26 07:11:03;;;;;;;9.10;8.67;;;4.30;24.00;;;;;;4972822;28;20480;-52
2023/02/26 07:13:29;;;;;;;9.10;8.50;;;4.40;23.00;;;;;;4972183;28;21009;-50
2023/02/26 07:15:54;;;;;;;9.20;8.57;;;4.40;22.50;;;;;;4971616;28;20543;-51
2023/02/26 07:18:20;;;;;;;9.03;8.53;;;4.40;22.10;;;;;;4972290;28;20179;-53
2023/02/26 07:20:48;;;;;;;8.40;8.00;;;4.50;21.80;;;;;;4971829;28;20178;-56
2023/02/26 07:23:14;;;;;;;10.33;9.70;;;4.50;23.90;;;;;;4972134;28;20175;-56
2023/02/26 07:25:40;;;;;;;9.17;8.67;;;4.50;23.40;;;;;;4972372;28;20410;-46
2023/02/26 07:28:06;;;;;;;9.53;9.03;;;4.50;25.10;;;;;;4971564;28;20422;-48
2023/02/26 07:30:31;;;;;;;8.50;8.10;;;4.80;25.80;;;;;;4972326;28;20778;-48
2023/02/26 07:32:57;;;;;;;9.23;8.83;;;4.90;25.40;;;;;;4972123;28;20183;-47
2023/02/26 07:35:23;;;;;;;9.10;8.67;;;5.10;25.00;;;;;;4972435;28;20663;-48
2023/02/26 07:37:51;;;;;;;9.03;8.57;;;5.20;24.10;;;;;;4956241;28;20257;-47
2023/02/26 07:40:17;;;;;;;9.37;8.77;;;5.30;23.90;;;;;;4972422;28;20418;-49
2023/02/26 07:42:42;;;;;;;8.87;8.47;;;5.30;22.80;;;;;;4972000;28;20859;-56
2023/02/26 07:45:09;;;;;;;9.20;8.70;;;5.30;24.40;;;;;;4947327;28;20443;-55
2023/02/26 07:47:35;;;;;;;7.57;7.17;;;5.40;23.00;;;;;;4963626;28;20674;-57
2023/02/26 07:50:02;;;;;;;8.00;7.40;;;5.20;20.90;;;;;;4950556;28;20839;-53
2023/02/26 07:52:27;;;;;;;8.03;7.70;;;5.10;20.80;;;;;;4956067;28;20430;-53
2023/02/26 07:54:53;;;;;;;8.33;7.80;;;4.90;20.70;;;;;;4973397;28;20482;-56
2023/02/26 07:57:19;;;;;;;7.53;6.93;;;4.90;20.90;;;;;;4956006;28;20249;-56
2023/02/26 07:59:45;;;;;;;8.47;7.90;;;4.80;21.70;;;;;;4955895;28;20183;-54
2023/02/26 08:02:11;;;;;;;8.27;7.57;;;4.90;20.70;;;;;;4955950;28;20190;-57
2023/02/26 08:04:37;;;;;;;7.20;6.87;;;5.00;20.80;;;;;;4955561;28;20249;-55
2023/02/26 08:07:03;;;;;;;7.83;7.43;;;5.00;20.80;;;;;;4956086;28;20906;-56
2023/02/26 08:09:29;;;;;;;7.80;7.50;;;4.90;22.20;;;;;;4956005;28;20313;-57
2023/02/26 08:11:55;;;;;;;7.60;7.10;;;4.90;22.40;;;;;;4955619;28;20179;-59
2023/02/26 08:14:21;;;;;;;7.43;6.93;;;4.80;22.80;;;;;;4955953;28;20532;-57
2023/02/26 08:16:47;;;;;;;7.63;7.10;;;4.90;22.00;;;;;;4955343;28;20604;-48
2023/02/26 08:19:13;;;;;;;7.60;7.10;;;4.70;22.20;;;;;;4955880;28;20835;-47
2023/02/26 08:21:39;;;;;;;7.60;7.00;;;4.60;22.00;;;;;;4955487;28;20183;-47
2023/02/26 08:24:05;;;;;;;7.80;7.30;;;4.60;22.00;;;;;;4955497;28;20409;-51
2023/02/26 08:26:34;;;;;;;7.93;7.47;;;4.50;22.90;;;;;;4955244;28;20190;-46
2023/02/26 08:29:00;;;;;;;7.97;7.37;;;4.60;22.10;;;;;;4955764;28;20428;-47
2023/02/26 08:31:27;;;;;;;7.70;7.20;;;4.50;22.10;;;;;;4955442;28;20501;-49
2023/02/26 08:33:52;;;;;;;7.30;7.00;;;4.50;21.90;;;;;;4955473;28;20636;-49
2023/02/26 08:36:20;;;;;;;8.23;7.47;;;4.60;21.60;;;;;;4955237;28;20513;-48
2023/02/26 08:38:46;;;;;;;8.20;7.50;;;4.50;21.80;;;;;;4955515;28;20710;-47
2023/02/26 08:41:12;;;;;;;7.63;7.10;;;4.50;21.20;;;;;;4955294;28;20422;-48
2023/02/26 08:43:37;;;;;;;8.10;7.50;;;4.50;21.90;;;;;;4972609;28;20445;-48
2023/02/26 08:46:03;;;;;;;8.13;7.77;;;4.30;22.40;;;;;;4954308;28;20188;-51
2023/02/26 08:48:29;;;;;;;10.27;9.67;;;4.50;22.40;;;;;;4955129;28;20182;-48
2023/02/26 08:50:54;;;;;;;8.07;7.67;;;4.50;22.70;;;;;;4955316;28;20175;-50
2023/02/26 08:53:20;;;;;;;7.73;7.30;;;4.50;21.70;;;;;;4939572;28;20237;-56
2023/02/26 08:55:50;;;;;;;7.63;7.30;;;4.50;21.50;;;;;;4955795;28;20278;-58
2023/02/26 08:58:17;;;;;;;8.17;7.77;;;4.00;23.10;;;;;;4955416;28;20210;-55
2023/02/26 09:00:43;;;;;;;8.40;7.77;;;4.00;22.90;;;;;;4955174;28;20822;-56
2023/02/26 09:03:09;;;;;;;8.23;7.73;;;4.10;22.50;;;;;;4963067;28;20466;-56
2023/02/26 09:05:35;;;;;;;7.30;6.90;;;4.20;22.10;;;;;;4937368;29;20427;-48
2023/02/26 09:08:00;;;;;;;7.23;6.73;;;4.30;22.10;;;;;;4935871;29;20427;-51
2023/02/26 09:10:26;;;;;;;7.33;6.83;;;4.20;22.10;;;;;;4938248;28;20666;-49
2023/02/26 09:12:52;;;;;;;7.57;7.17;;;4.20;22.50;;;;;;4935678;29;20187;-51
2023/02/26 09:15:18;;;;;;;7.17;6.77;;;4.20;22.10;;;;;;4936276;29;20415;-50
2023/02/26 09:17:45;;;;;;;7.20;6.80;;;4.20;22.60;;;;;;4936207;28;20338;-53
2023/02/26 09:20:12;;;;;;;7.20;6.80;;;4.00;23.50;;;;;;4936523;29;20907;-51
2023/02/26 09:22:38;;;;;;;7.03;6.63;;;4.00;23.20;;;;;;4935653;29;20498;-53
2023/02/26 09:25:05;;;;;;;7.40;6.97;;;4.10;23.20;;;;;;4952979;29;20506;-53
2023/02/26 09:27:31;;;;;;;6.73;6.47;;;4.30;22.60;;;;;;4935853;29;20194;-48
2023/02/26 09:29:56;;;;;;;6.43;6.03;;;4.30;22.90;;;;;;4935696;29;20423;-51
2023/02/26 09:32:22;;;;;;;6.50;6.20;;;4.40;22.20;;;;;;4935716;29;20513;-52
2023/02/26 09:34:48;;;;;;;6.80;6.40;;;4.30;23.00;;;;;;4935854;29;20187;-50
2023/02/26 09:37:14;;;;;;;7.27;6.90;;;4.30;23.20;;;;;;4935975;29;20664;-48
2023/02/26 09:39:39;;;;;;;6.83;6.53;;;4.50;24.00;;;;;;4936211;29;20469;-49
2023/02/26 09:42:37;;;;;;;7.37;6.97;;;4.60;22.70;;;;;;4936291;29;20218;-51
2023/02/26 09:45:05;;;;;;;7.50;6.93;;;4.40;23.50;;;;;;4923933;29;20199;-49
2023/02/26 09:47:44;;;;;;;7.23;6.93;;;4.40;23.90;;;;;;4936309;29;20869;-48
2023/02/26 09:50:21;;;;;;;6.53;6.23;;;4.40;22.90;;;;;;4936313;29;20841;-54
2023/02/26 09:52:58;;;;;;;6.50;6.20;;;4.40;23.10;;;;;;4936085;29;20426;-52
2023/02/26 09:55:26;;;;;;;7.57;6.97;;;4.40;23.50;;;;;;4936266;29;20433;-53
2023/02/26 09:57:57;;;;;;;6.13;5.87;;;4.50;23.50;;;;;;4938587;29;20895;-47
2023/02/26 10:00:35;;;;;;;6.93;6.63;;;4.40;23.20;;;;;;4939597;29;20774;-52
2023/02/26 10:03:42;;;;;;;6.80;6.40;;;4.50;23.70;;;;;;4956773;29;20415;-52
2023/02/26 10:06:20;;;;;;;7.10;6.70;;;4.50;23.80;;;;;;4939538;29;20458;-50
2023/02/26 10:09:15;;;;;;;7.47;6.90;;;4.30;24.30;;;;;;4939371;29;20934;-51
2023/02/26 10:11:49;;;;;;;7.00;6.60;;;4.50;24.10;;;;;;4939147;29;20911;-52
2023/02/26 10:14:30;;;;;;;7.20;6.90;;;4.70;23.70;;;;;;4939449;29;20453;-49
2023/02/26 10:17:01;;;;;;;8.07;7.57;;;4.80;23.70;;;;;;4939234;29;20466;-57
2023/02/26 10:19:35;;;;;;;7.40;7.10;;;4.90;23.50;;;;;;4956735;29;20411;-57
2023/02/26 10:22:15;;;;;;;6.87;6.57;;;4.90;23.60;;;;;;4939207;29;20422;-58
2023/02/26 10:24:47;;;;;;;7.20;6.80;;;4.90;23.50;;;;;;4939205;29;20454;-58
2023/02/26 10:27:30;;;;;;;7.07;6.70;;;4.80;23.20;;;;;;4939161;29;20522;-58
2023/02/26 10:30:02;;;;;;;7.73;7.33;;;4.50;24.50;;;;;;4947244;28;20508;-58
2023/02/26 10:33:17;;;;;;;7.13;6.77;;;4.60;24.60;;;;;;4952351;28;20450;-56
2023/02/26 10:35:52;;;;;;;7.97;7.60;;;4.40;24.40;;;;;;4917956;28;20430;-58
2023/02/26 10:38:26;;;;;;;6.53;6.23;;;4.40;24.90;;;;;;4958209;28;20468;-58
2023/02/26 10:41:12;;;;;;;7.13;6.83;;;4.40;23.70;;;;;;4957828;28;20910;-56
2023/02/26 10:43:47;;;;;;;6.43;6.23;;;4.30;24.20;;;;;;4974807;28;20445;-57
2023/02/26 10:46:36;;;;;;;6.83;6.43;;;4.50;23.70;;;;;;4975923;28;20413;-58
2023/02/26 10:49:39;;;;;;;6.90;6.60;;;4.40;23.50;;;;;;4977545;28;20464;-58
2023/02/26 10:52:17;;;;;;;7.07;6.87;;;4.30;24.70;;;;;;4957336;28;20412;-54
2023/02/26 10:54:53;;;;;;;7.13;6.77;;;4.30;23.70;;;;;;4977351;28;20421;-57
2023/02/26 10:57:33;;;;;;;7.90;7.50;;;4.10;24.00;;;;;;4958934;28;20482;-55
2023/02/26 11:00:00;;;;;;;7.20;6.80;;;4.20;24.00;;;;;;4949230;28;20417;-53
2023/02/26 11:02:37;;;;;;;6.57;6.37;;;4.50;23.40;;;;;;4947326;28;20450;-58
2023/02/26 11:05:05;;;;;;;6.50;6.30;;;4.60;23.30;;;;;;4948979;28;20509;-56
2023/02/26 11:07:35;;;;;;;7.80;7.40;;;4.80;22.90;;;;;;4945819;28;20816;-57
2023/02/26 11:10:02;;;;;;;7.30;7.00;;;4.70;23.20;;;;;;4950628;28;20434;-57
2023/02/26 11:12:28;;;;;;;7.57;7.27;;;4.60;23.20;;;;;;4957899;28;20436;-56
2023/02/26 11:14:53;;;;;;;7.50;7.17;;;4.70;27.60;;;;;;4957893;28;20434;-55
2023/02/26 11:17:31;;;;;;;7.07;6.77;;;4.80;23.50;;;;;;4957648;28;20237;-56
2023/02/26 11:19:56;;;;;;;7.10;6.80;;;4.80;23.60;;;;;;4957555;28;20183;-54
2023/02/26 11:22:26;;;;;;;7.40;7.10;;;4.90;26.40;;;;;;4957523;28;20414;-51
2023/02/26 11:24:52;;;;;;;7.27;6.93;;;5.10;25.20;;;;;;4957587;28;20650;-47
2023/02/26 11:27:24;;;;;;;7.83;7.43;;;5.20;26.40;;;;;;4957434;28;20938;-51
2023/02/26 11:29:56;;;;;;;7.40;7.10;;;5.30;25.40;;;;;;4957524;28;20796;-50
2023/02/26 11:32:31;;;;;;;8.07;7.70;;;5.20;23.20;;;;;;4956917;28;20430;-51
2023/02/26 11:34:57;;;;;;;6.10;5.90;;;5.30;24.40;;;;;;4956621;28;20517;-50
2023/02/26 11:37:28;;;;;;;7.33;7.13;;;5.30;24.40;;;;;;4938090;29;20470;-49
2023/02/26 11:40:21;;;;;;;7.23;6.93;;;5.40;25.90;;;;;;4952578;28;20237;-50
2023/02/26 11:42:54;;;;;;;7.67;7.37;;;5.40;25.30;;;;;;4953454;28;20917;-49
2023/02/26 11:45:21;;;;;;;6.63;6.37;;;5.40;23.40;;;;;;4953679;29;20443;-50
2023/02/26 11:47:49;;;;;;;7.20;6.90;;;5.30;22.30;;;;;;4953186;29;20427;-51
2023/02/26 11:50:19;;;;;;;6.40;6.20;;;5.40;24.40;;;;;;4952814;29;20446;-52
2023/02/26 11:52:53;;;;;;;6.40;6.20;;;5.20;21.90;;;;;;4952888;29;20514;-50
2023/02/26 11:55:46;;;;;;;6.57;6.37;;;5.20;22.40;;;;;;4953701;28;20566;-48
2023/02/26 11:58:23;;;;;;;6.70;6.40;;;5.30;25.00;;;;;;4937523;29;20845;-51
2023/02/26 12:00:52;;;;;;;6.80;6.60;;;5.50;24.00;;;;;;4959022;28;20437;-53
2023/02/26 12:03:27;;;;;;;6.90;6.70;;;5.50;24.50;;;;;;4949083;28;20474;-57
2023/02/26 12:05:53;;;;;;;6.77;6.57;;;5.40;22.10;;;;;;4937650;29;20485;-58
2023/02/26 12:08:28;;;;;;;7.50;7.20;;;5.40;22.90;;;;;;4953671;28;20429;-57
2023/02/26 12:11:00;;;;;;;7.07;6.87;;;5.20;24.70;;;;;;4966628;28;20186;-57
2023/02/26 12:14:06;;;;;;;7.27;6.97;;;5.20;22.80;;;;;;4974581;28;20535;-53
2023/02/26 12:17:13;;;;;;;7.43;7.23;;;4.80;24.20;;;;;;4956730;28;20777;-50
2023/02/26 12:19:53;;;;;;;7.63;7.33;;;4.80;23.90;;;;;;4935820;28;20903;-49
2023/02/26 12:22:45;;;;;;;7.50;7.20;;;4.90;27.70;;;;;;4987246;28;20425;-49
2023/02/26 12:25:39;;;;;;;7.80;7.50;;;5.20;24.10;;;;;;4976051;28;20785;-48
2023/02/26 12:28:47;;;;;;;6.97;6.70;;;5.20;23.20;;;;;;4991930;28;20801;-51
2023/02/26 12:31:35;;;;;;;7.20;6.90;;;5.00;23.40;;;;;;4975754;28;20507;-49
2023/02/26 12:34:39;;;;;;;7.03;6.60;;;5.00;23.70;;;;;;4972125;28;20425;-49
2023/02/26 12:37:23;;;;;;;7.60;7.27;;;5.20;29.90;;;;;;4960523;28;20472;-49
2023/02/26 12:40:00;;;;;;;8.57;8.07;;;5.30;24.10;;;;;;4975580;28;20438;-50
2023/02/26 12:42:47;;;;;;;8.13;7.83;;;5.10;23.30;;;;;;4975655;28;20417;-51
2023/02/26 12:45:46;;;;;;;6.40;6.20;;;5.30;29.90;;;;;;4975351;28;20580;-49
2023/02/26 12:48:27;;;;;;;7.27;6.97;;;5.40;24.90;;;;;;4975630;28;20976;-53
2023/02/26 12:51:11;;;;;;;6.57;6.37;;;5.50;29.10;;;;;;4975489;28;20784;-49
2023/02/26 12:53:36;;;;;;;7.30;6.90;;;5.50;22.40;;;;;;4952788;28;20476;-48
2023/02/26 12:56:20;;;;;;;7.40;7.10;;;5.30;23.60;;;;;;4972134;28;20410;-50
2023/02/26 12:59:23;;;;;;;7.23;6.93;;;5.50;24.60;;;;;;4956114;28;20181;-52
2023/02/26 13:02:16;;;;;;;7.13;6.93;;;5.50;23.90;;;;;;4956063;28;20426;-48
2023/02/26 13:04:57;;;;;;;7.17;6.93;;;5.50;25.00;;;;;;4956020;28;20422;-48
2023/02/26 13:07:56;;;;;;;6.77;6.40;;;5.50;24.80;;;;;;4956376;28;20426;-54
2023/02/26 13:10:51;;;;;;;7.07;6.77;;;5.40;23.20;;;;;;4956952;28;20517;-52
2023/02/26 13:13:25;;;;;;;7.07;6.77;;;5.50;23.20;;;;;;4934535;28;20429;-54
2023/02/26 13:16:03;;;;;;;6.63;6.43;;;5.50;22.00;;;;;;4957230;28;20718;-52
2023/02/26 13:18:31;;;;;;;5.87;5.67;;;5.60;21.20;;;;;;4975588;28;20574;-49
2023/02/26 13:21:19;;;;;;;6.47;6.17;;;5.60;20.50;;;;;;4974891;28;20463;-54
2023/02/26 13:23:56;;;;;;;7.17;6.87;;;5.50;20.30;;;;;;4972282;28;20405;-57